sensor_id;sensor_type;location;lat;lon;timestamp;pressure;altitude;pressure_sealevel;temperature;humidity
14612;BME280;7392;52.078;11.650;2023-03-20T00:00:46;100903.13;;;9.14;100.00
14612;BME280;7392;52.078;11.650;2023-03-20T00:03:16;100900.47;;;9.14;100.00
14612;BME280;7392;52.078;11.650;2023-03-20T00:05:44;100903.09;;;9.12;100.00
14612;BME280;7392;52.078;11.650;2023-03-20T00:08:14;100898.66;;;9.11;100.00
14612;BME280;7392;52.078;11.650;2023-03-20T00:10:44;100899.53;;;9.10;100.00
14612;BME280;7392;52.078;11.650;2023-03-20T00:13:14;100900.44;;;9.09;100.00
14612;BME280;7392;52.078;11.650;2023-03-20T00:15:46;100907.50;;;9.09;100.00
14612;BME280;7392;52.078;11.650;2023-03-20T00:18:17;100906.59;;;9.10;100.00
14612;BME280;7392;52.078;11.650;2023-03-20T00:20:46;100912.78;;;9.07;100.00
14612;BME280;7392;52.078;11.650;2023-03-20T00:23:14;100901.28;;;9.07;100.00
14612;BME280;7392;52.078;11.650;2023-03-20T00:25:43;100908.34;;;9.05;100.00
14612;BME280;7392;52.078;11.650;2023-03-20T00:28:33;100901.28;;;9.04;100.00
14612;BME280;7392;52.078;11.650;2023-03-20T00:31:08;100908.31;;;9.03;100.00
14612;BME280;7392;52.078;11.650;2023-03-20T00:33:41;100905.66;;;9.02;100.00
14612;BME280;7392;52.078;11.650;2023-03-20T00:36:09;100910.06;;;8.99;100.00
14612;BME280;7392;52.078;11.650;2023-03-20T00:38:38;100913.63;;;8.98;100.00
14612;BME280;7392;52.078;11.650;2023-03-20T00:41:19;100910.97;;;8.98;100.00
14612;BME280;7392;52.078;11.650;2023-03-20T00:43:50;100915.34;;;8.96;100.00
14612;BME280;7392;52.078;11.650;2023-03-20T00:46:18;100907.38;;;8.95;100.00
14612;BME280;7392;52.078;11.650;2023-03-20T00:48:48;100910.94;;;8.94;100.00
14612;BME280;7392;52.078;11.650;2023-03-20T00:51:18;100913.56;;;8.92;100.00
14612;BME280;7392;52.078;11.650;2023-03-20T00:53:45;100919.72;;;8.91;100.00
14612;BME280;7392;52.078;11.650;2023-03-20T00:56:27;100912.69;;;8.92;100.00
14612;BME280;7392;52.078;11.650;2023-03-20T00:58:57;100915.34;;;8.92;100.00
14612;BME280;7392;52.078;11.650;2023-03-20T01:01:26;100915.31;;;8.90;100.00
14612;BME280;7392;52.078;11.650;2023-03-20T01:03:55;100910.91;;;8.91;100.00
14612;BME280;7392;52.078;11.650;2023-03-20T01:06:24;100907.38;;;8.92;100.00
14612;BME280;7392;52.078;11.650;2023-03-20T01:08:51;100902.09;;;8.93;100.00
14612;BME280;7392;52.078;11.650;2023-03-20T01:11:24;100904.72;;;8.95;100.00
14612;BME280;7392;52.078;11.650;2023-03-20T01:13:52;100904.75;;;8.96;100.00
14612;BME280;7392;52.078;11.650;2023-03-20T01:16:21;100905.66;;;8.97;100.00
14612;BME280;7392;52.078;11.650;2023-03-20T01:18:49;100901.22;;;8.97;100.00
14612;BME280;7392;52.078;11.650;2023-03-20T01:21:19;100897.72;;;8.98;100.00
14612;BME280;7392;52.078;11.650;2023-03-20T01:23:48;100896.81;;;8.99;100.00
14612;BME280;7392;52.078;11.650;2023-03-20T01:26:22;100901.25;;;9.01;100.00
14612;BME280;7392;52.078;11.650;2023-03-20T01:28:51;100901.25;;;9.01;100.00
14612;BME280;7392;52.078;11.650;2023-03-20T01:31:19;100895.06;;;9.02;100.00
14612;BME280;7392;52.078;11.650;2023-03-20T01:33:47;100896.84;;;9.01;100.00
14612;BME280;7392;52.078;11.650;2023-03-20T01:36:17;100896.84;;;9.03;100.00
14612;BME280;7392;52.078;11.650;2023-03-20T01:38:50;100895.97;;;9.02;100.00
14612;BME280;7392;52.078;11.650;2023-03-20T01:41:22;100903.00;;;9.02;100.00
14612;BME280;7392;52.078;11.650;2023-03-20T01:43:51;100895.06;;;9.03;100.00
14612;BME280;7392;52.078;11.650;2023-03-20T01:46:22;100903.03;;;9.03;100.00
14612;BME280;7392;52.078;11.650;2023-03-20T01:48:59;100896.84;;;9.01;100.00
14612;BME280;7392;52.078;11.650;2023-03-20T01:51:28;100903.00;;;9.02;100.00
14612;BME280;7392;52.078;11.650;2023-03-20T01:54:06;100901.25;;;8.99;100.00
14612;BME280;7392;52.078;11.650;2023-03-20T01:56:44;100893.31;;;8.99;100.00
14612;BME280;7392;52.078;11.650;2023-03-20T01:59:16;100899.47;;;8.98;100.00
14612;BME280;7392;52.078;11.650;2023-03-20T02:01:45;100888.88;;;8.98;100.00
14612;BME280;7392;52.078;11.650;2023-03-20T02:04:17;100892.41;;;8.97;100.00
14612;BME280;7392;52.078;11.650;2023-03-20T02:06:51;100895.91;;;8.94;100.00
14612;BME280;7392;52.078;11.650;2023-03-20T02:09:26;100900.31;;;8.92;100.00
14612;BME280;7392;52.078;11.650;2023-03-20T02:11:55;100898.53;;;8.91;100.00
14612;BME280;7392;52.078;11.650;2023-03-20T02:14:24;100894.13;;;8.89;100.00
14612;BME280;7392;52.078;11.650;2023-03-20T02:17:00;100886.13;;;8.86;100.00
14612;BME280;7392;52.078;11.650;2023-03-20T02:20:02;100888.78;;;8.84;100.00
14612;BME280;7392;52.078;11.650;2023-03-20T02:26:09;100897.59;;;8.80;100.00
14612;BME280;7392;52.078;11.650;2023-03-20T02:29:07;100901.09;;;8.79;100.00
14612;BME280;7392;52.078;11.650;2023-03-20T02:32:17;100904.63;;;8.81;100.00
14612;BME280;7392;52.078;11.650;2023-03-20T02:40:54;100899.41;;;8.90;100.00
14612;BME280;7392;52.078;11.650;2023-03-20T02:43:33;100903.84;;;8.94;100.00
14612;BME280;7392;52.078;11.650;2023-03-20T02:46:12;100909.19;;;8.99;100.00
14612;BME280;7392;52.078;11.650;2023-03-20T02:48:46;100911.88;;;9.04;100.00
14612;BME280;7392;52.078;11.650;2023-03-20T02:51:26;100910.13;;;9.06;100.00
14612;BME280;7392;52.078;11.650;2023-03-20T02:54:06;100911.00;;;9.08;100.00
14612;BME280;7392;52.078;11.650;2023-03-20T02:56:39;100909.28;;;9.11;100.00
14612;BME280;7392;52.078;11.650;2023-03-20T02:59:15;100922.53;;;9.14;100.00
14612;BME280;7392;52.078;11.650;2023-03-20T03:01:51;100917.28;;;9.17;100.00
14612;BME280;7392;52.078;11.650;2023-03-20T03:04:23;100930.53;;;9.22;100.00
14612;BME280;7392;52.078;11.650;2023-03-20T03:06:53;100920.81;;;9.21;100.00
14612;BME280;7392;52.078;11.650;2023-03-20T03:09:28;100936.75;;;9.23;100.00
14612;BME280;7392;52.078;11.650;2023-03-20T03:12:02;100927.88;;;9.24;100.00
14612;BME280;7392;52.078;11.650;2023-03-20T03:14:36;100938.50;;;9.25;100.00
14612;BME280;7392;52.078;11.650;2023-03-20T03:17:11;100930.56;;;9.25;100.00
14612;BME280;7392;52.078;11.650;2023-03-20T03:19:44;100935.00;;;9.28;100.00
14612;BME280;7392;52.078;11.650;2023-03-20T03:22:14;100936.75;;;9.29;100.00
14612;BME280;7392;52.078;11.650;2023-03-20T03:24:45;100935.88;;;9.30;100.00
14612;BME280;7392;52.078;11.650;2023-03-20T03:27:17;100935.91;;;9.31;100.00
14612;BME280;7392;52.078;11.650;2023-03-20T03:29:50;100934.13;;;9.32;100.00
14612;BME280;7392;52.078;11.650;2023-03-20T03:32:26;100935.94;;;9.34;100.00
14612;BME280;7392;52.078;11.650;2023-03-20T03:34:56;100940.34;;;9.37;100.00
14612;BME280;7392;52.078;11.650;2023-03-20T03:37:32;100943.00;;;9.37;100.00
14612;BME280;7392;52.078;11.650;2023-03-20T03:40:10;100947.44;;;9.40;100.00
14612;BME280;7392;52.078;11.650;2023-03-20T03:42:48;100945.69;;;9.42;100.00
14612;BME280;7392;52.078;11.650;2023-03-20T03:45:23;100958.94;;;9.42;100.00
14612;BME280;7392;52.078;11.650;2023-03-20T03:47:56;100956.31;;;9.43;100.00
14612;BME280;7392;52.078;11.650;2023-03-20T03:50:29;100965.13;;;9.42;100.00
14612;BME280;7392;52.078;11.650;2023-03-20T03:53:02;100959.81;;;9.44;100.00
14612;BME280;7392;52.078;11.650;2023-03-20T03:55:37;100958.94;;;9.43;100.00
14612;BME280;7392;52.078;11.650;2023-03-20T03:58:10;100968.69;;;9.47;100.00
14612;BME280;7392;52.078;11.650;2023-03-20T04:00:41;100971.34;;;9.47;100.00
14612;BME280;7392;52.078;11.650;2023-03-20T04:03:11;100966.91;;;9.49;100.00
14612;BME280;7392;52.078;11.650;2023-03-20T04:05:41;100972.22;;;9.51;100.00
14612;BME280;7392;52.078;11.650;2023-03-20T04:08:10;100971.38;;;9.52;100.00
14612;BME280;7392;52.078;11.650;2023-03-20T04:10:41;100972.25;;;9.52;100.00
14612;BME280;7392;52.078;11.650;2023-03-20T04:13:08;100970.47;;;9.53;100.00
14612;BME280;7392;52.078;11.650;2023-03-20T04:15:37;100982.00;;;9.53;100.00
14612;BME280;7392;52.078;11.650;2023-03-20T04:18:06;100974.91;;;9.54;100.00
14612;BME280;7392;52.078;11.650;2023-03-20T04:20:37;100988.16;;;9.54;100.00
14612;BME280;7392;52.078;11.650;2023-03-20T04:23:05;100978.44;;;9.51;100.00
14612;BME280;7392;52.078;11.650;2023-03-20T04:25:34;100991.72;;;9.51;100.00
14612;BME280;7392;52.078;11.650;2023-03-20T04:28:03;101001.38;;;9.48;100.00
14612;BME280;7392;52.078;11.650;2023-03-20T04:30:51;101001.34;;;9.40;100.00
14612;BME280;7392;52.078;11.650;2023-03-20T04:33:32;101010.13;;;9.31;100.00
14612;BME280;7392;52.078;11.650;2023-03-20T04:38:41;101004.72;;;9.17;100.00
14612;BME280;7392;52.078;11.650;2023-03-20T04:41:08;101009.09;;;9.11;100.00
14612;BME280;7392;52.078;11.650;2023-03-20T04:43:37;101009.03;;;9.05;100.00
14612;BME280;7392;52.078;11.650;2023-03-20T04:46:06;101012.53;;;9.01;100.00
14612;BME280;7392;52.078;11.650;2023-03-20T04:48:33;101007.19;;;8.96;100.00
14612;BME280;7392;52.078;11.650;2023-03-20T04:51:02;100997.44;;;8.92;100.00
14612;BME280;7392;52.078;11.650;2023-03-20T04:53:45;101003.56;;;8.86;100.00
14612;BME280;7392;52.078;11.650;2023-03-20T04:56:13;101002.66;;;8.83;100.00
14612;BME280;7392;52.078;11.650;2023-03-20T04:58:41;101003.53;;;8.80;100.00
14612;BME280;7392;52.078;11.650;2023-03-20T05:01:09;101000.81;;;8.75;100.00
14612;BME280;7392;52.078;11.650;2023-03-20T05:03:37;101004.34;;;8.73;100.00
14612;BME280;7392;52.078;11.650;2023-03-20T05:06:06;100995.47;;;8.71;100.00
14612;BME280;7392;52.078;11.650;2023-03-20T05:08:35;100999.00;;;8.68;100.00
14612;BME280;7392;52.078;11.650;2023-03-20T05:11:05;100998.09;;;8.66;100.00
14612;BME280;7392;52.078;11.650;2023-03-20T05:13:53;101010.44;;;8.63;100.00
14612;BME280;7392;52.078;11.650;2023-03-20T05:16:47;101009.50;;;8.62;100.00
14612;BME280;7392;52.078;11.650;2023-03-20T05:19:31;101023.66;;;8.63;100.00
14612;BME280;7392;52.078;11.650;2023-03-20T05:22:01;101019.22;;;8.61;100.00
14612;BME280;7392;52.078;11.650;2023-03-20T05:24:39;101019.22;;;8.61;100.00
14612;BME280;7392;52.078;11.650;2023-03-20T05:27:27;101021.88;;;8.61;100.00
14612;BME280;7392;52.078;11.650;2023-03-20T05:30:13;101028.03;;;8.60;100.00
14612;BME280;7392;52.078;11.650;2023-03-20T05:32:59;101027.19;;;8.61;100.00
14612;BME280;7392;52.078;11.650;2023-03-20T05:35:27;101028.94;;;8.61;100.00
14612;BME280;7392;52.078;11.650;2023-03-20T05:38:06;101027.16;;;8.60;100.00
14612;BME280;7392;52.078;11.650;2023-03-20T05:40:55;101023.63;;;8.59;100.00
14612;BME280;7392;52.078;11.650;2023-03-20T05:43:33;101028.94;;;8.59;100.00
14612;BME280;7392;52.078;11.650;2023-03-20T05:46:17;101019.22;;;8.60;100.00
14612;BME280;7392;52.078;11.650;2023-03-20T05:49:03;101024.50;;;8.60;100.00
14612;BME280;7392;52.078;11.650;2023-03-20T05:52:06;101032.47;;;8.61;100.00
14612;BME280;7392;52.078;11.650;2023-03-20T05:55:00;101028.06;;;8.62;100.00
14612;BME280;7392;52.078;11.650;2023-03-20T05:57:39;101022.75;;;8.62;100.00
14612;BME280;7392;52.078;11.650;2023-03-20T06:00:37;101027.19;;;8.61;100.00
14612;BME280;7392;52.078;11.650;2023-03-20T06:03:37;101024.53;;;8.61;100.00
14612;BME280;7392;52.078;11.650;2023-03-20T06:06:10;101036.00;;;8.64;100.00
14612;BME280;7392;52.078;11.650;2023-03-20T06:08:39;101023.66;;;8.64;100.00
14612;BME280;7392;52.078;11.650;2023-03-20T06:11:07;101030.72;;;8.64;100.00
14612;BME280;7392;52.078;11.650;2023-03-20T06:13:37;101021.91;;;8.65;100.00
14612;BME280;7392;52.078;11.650;2023-03-20T06:16:07;101030.75;;;8.67;100.00
14612;BME280;7392;52.078;11.650;2023-03-20T06:18:35;101032.53;;;8.68;100.00
14612;BME280;7392;52.078;11.650;2023-03-20T06:21:06;101035.19;;;8.68;100.00
14612;BME280;7392;52.078;11.650;2023-03-20T06:23:33;101031.66;;;8.69;100.00
14612;BME280;7392;52.078;11.650;2023-03-20T06:26:01;101031.66;;;8.70;100.00
14612;BME280;7392;52.078;11.650;2023-03-20T06:28:40;101033.47;;;8.73;100.00
14612;BME280;7392;52.078;11.650;2023-03-20T06:31:10;101020.25;;;8.76;100.00
14612;BME280;7392;52.078;11.650;2023-03-20T06:33:37;101014.97;;;8.77;100.00
14612;BME280;7392;52.078;11.650;2023-03-20T06:36:07;101022.97;;;8.82;100.00
14612;BME280;7392;52.078;11.650;2023-03-20T06:38:36;101029.19;;;8.87;100.00
14612;BME280;7392;52.078;11.650;2023-03-20T06:41:09;101032.75;;;8.91;100.00
14612;BME280;7392;52.078;11.650;2023-03-20T06:43:44;101029.25;;;8.96;100.00
14612;BME280;7392;52.078;11.650;2023-03-20T06:46:13;101026.66;;;9.01;100.00
14612;BME280;7392;52.078;11.650;2023-03-20T06:48:41;101039.97;;;9.07;100.00
14612;BME280;7392;52.078;11.650;2023-03-20T06:51:09;101040.91;;;9.14;100.00
14612;BME280;7392;52.078;11.650;2023-03-20T06:53:47;101040.94;;;9.18;100.00
14612;BME280;7392;52.078;11.650;2023-03-20T06:56:18;101037.47;;;9.26;100.00
14612;BME280;7392;52.078;11.650;2023-03-20T06:58:46;101054.31;;;9.31;100.00
14612;BME280;7392;52.078;11.650;2023-03-20T07:01:16;101049.94;;;9.36;100.00
14612;BME280;7392;52.078;11.650;2023-03-20T07:03:46;101050.84;;;9.44;100.00
14612;BME280;7392;52.078;11.650;2023-03-20T07:06:19;101058.88;;;9.53;100.00
14612;BME280;7392;52.078;11.650;2023-03-20T07:08:47;101066.00;;;9.61;100.00
14612;BME280;7392;52.078;11.650;2023-03-20T07:11:14;101066.03;;;9.65;100.00
14612;BME280;7392;52.078;11.650;2023-03-20T07:13:42;101077.56;;;9.73;100.00
14612;BME280;7392;52.078;11.650;2023-03-20T07:16:22;101077.63;;;9.81;100.00
14612;BME280;7392;52.078;11.650;2023-03-20T07:18:50;101074.13;;;9.87;100.00
14612;BME280;7392;52.078;11.650;2023-03-20T07:21:20;101084.78;;;9.93;100.00
14612;BME280;7392;52.078;11.650;2023-03-20T07:23:49;101083.91;;;9.97;100.00
14612;BME280;7392;52.078;11.650;2023-03-20T07:26:17;101083.03;;;9.98;100.00
14612;BME280;7392;52.078;11.650;2023-03-20T07:28:45;101094.50;;;9.97;100.00
14612;BME280;7392;52.078;11.650;2023-03-20T07:31:23;101097.16;;;9.96;100.00
14612;BME280;7392;52.078;11.650;2023-03-20T07:34:00;101098.91;;;9.89;100.00
14612;BME280;7392;52.078;11.650;2023-03-20T07:36:28;101093.59;;;9.87;100.00
14612;BME280;7392;52.078;11.650;2023-03-20T07:38:56;101098.88;;;9.84;100.00
14612;BME280;7392;52.078;11.650;2023-03-20T07:41:24;101105.94;;;9.85;100.00
14612;BME280;7392;52.078;11.650;2023-03-20T07:44:00;101115.66;;;9.85;100.00
14612;BME280;7392;52.078;11.650;2023-03-20T07:46:47;101106.81;;;9.81;100.00
14612;BME280;7392;52.078;11.650;2023-03-20T07:49:16;101105.03;;;9.80;100.00
14612;BME280;7392;52.078;11.650;2023-03-20T07:51:45;101106.81;;;9.81;100.00
14612;BME280;7392;52.078;11.650;2023-03-20T07:54:13;101107.69;;;9.82;100.00
14612;BME280;7392;52.078;11.650;2023-03-20T07:56:41;101097.97;;;9.84;100.00
14612;BME280;7392;52.078;11.650;2023-03-20T07:59:09;101096.25;;;9.89;100.00
14612;BME280;7392;52.078;11.650;2023-03-20T08:01:37;101102.47;;;9.92;100.00
14612;BME280;7392;52.078;11.650;2023-03-20T08:04:06;101105.13;;;9.97;100.00
14612;BME280;7392;52.078;11.650;2023-03-20T08:06:34;101105.16;;;10.00;100.00
14612;BME280;7392;52.078;11.650;2023-03-20T08:09:02;101104.31;;;10.03;100.00
14612;BME280;7392;52.078;11.650;2023-03-20T08:11:30;101104.31;;;10.04;100.00
14612;BME280;7392;52.078;11.650;2023-03-20T08:14:00;101098.97;;;10.06;100.00
14612;BME280;7392;52.078;11.650;2023-03-20T08:16:28;101103.44;;;10.08;100.00
14612;BME280;7392;52.078;11.650;2023-03-20T08:18:56;101099.91;;;10.08;99.94
14612;BME280;7392;52.078;11.650;2023-03-20T08:21:29;101097.25;;;10.09;99.61
14612;BME280;7392;52.078;11.650;2023-03-20T08:23:57;101109.66;;;10.14;99.53
14612;BME280;7392;52.078;11.650;2023-03-20T08:26:25;101107.00;;;10.15;99.44
14612;BME280;7392;52.078;11.650;2023-03-20T08:28:53;101110.56;;;10.19;99.13
14612;BME280;7392;52.078;11.650;2023-03-20T08:31:21;101109.72;;;10.24;99.77
14612;BME280;7392;52.078;11.650;2023-03-20T08:33:48;101120.34;;;10.29;99.74
14612;BME280;7392;52.078;11.650;2023-03-20T08:36:16;101115.91;;;10.29;98.66
14612;BME280;7392;52.078;11.650;2023-03-20T08:38:48;101115.94;;;10.31;98.46
14612;BME280;7392;52.078;11.650;2023-03-20T08:41:16;101109.81;;;10.34;98.91
14612;BME280;7392;52.078;11.650;2023-03-20T08:43:44;101116.91;;;10.39;99.07
14612;BME280;7392;52.078;11.650;2023-03-20T08:46:13;101114.25;;;10.42;98.48
14612;BME280;7392;52.078;11.650;2023-03-20T08:48:40;101111.63;;;10.44;97.95
14612;BME280;7392;52.078;11.650;2023-03-20T08:51:08;101118.66;;;10.43;97.46
14612;BME280;7392;52.078;11.650;2023-03-20T08:53:36;101108.03;;;10.42;96.62
14612;BME280;7392;52.078;11.650;2023-03-20T08:56:07;101108.06;;;10.40;96.33
14612;BME280;7392;52.078;11.650;2023-03-20T08:58:35;101112.47;;;10.43;96.84
14612;BME280;7392;52.078;11.650;2023-03-20T09:01:04;101114.25;;;10.48;96.86
14612;BME280;7392;52.078;11.650;2023-03-20T09:03:32;101123.13;;;10.54;96.83
14612;BME280;7392;52.078;11.650;2023-03-20T09:05:59;101115.22;;;10.60;96.60
14612;BME280;7392;52.078;11.650;2023-03-20T09:08:27;101102.81;;;10.62;96.79
14612;BME280;7392;52.078;11.650;2023-03-20T09:10:55;101107.25;;;10.64;96.20
14612;BME280;7392;52.078;11.650;2023-03-20T09:13:24;101107.25;;;10.71;96.38
14612;BME280;7392;52.078;11.650;2023-03-20T09:15:54;101110.84;;;10.80;96.72
14612;BME280;7392;52.078;11.650;2023-03-20T09:18:22;101110.88;;;10.85;96.29
14612;BME280;7392;52.078;11.650;2023-03-20T09:20:50;101109.97;;;10.88;95.84
14612;BME280;7392;52.078;11.650;2023-03-20T09:23:18;101098.47;;;10.90;95.31
14612;BME280;7392;52.078;11.650;2023-03-20T09:25:46;101105.53;;;10.91;94.84
14612;BME280;7392;52.078;11.650;2023-03-20T09:28:14;101098.50;;;10.93;94.88
14612;BME280;7392;52.078;11.650;2023-03-20T09:30:43;101101.16;;;11.01;94.81
14612;BME280;7392;52.078;11.650;2023-03-20T09:33:11;101105.56;;;11.08;94.80
14612;BME280;7392;52.078;11.650;2023-03-20T09:35:40;101102.03;;;11.17;94.65
14612;BME280;7392;52.078;11.650;2023-03-20T09:38:09;101100.28;;;11.17;94.37
14612;BME280;7392;52.078;11.650;2023-03-20T09:40:48;101108.25;;;11.23;94.39
14612;BME280;7392;52.078;11.650;2023-03-20T09:43:26;101109.16;;;11.30;94.50
14612;BME280;7392;52.078;11.650;2023-03-20T09:46:06;101108.28;;;11.34;94.47
14612;BME280;7392;52.078;11.650;2023-03-20T09:48:43;101106.50;;;11.36;94.08
14612;BME280;7392;52.078;11.650;2023-03-20T09:51:18;101114.50;;;11.41;93.99
14612;BME280;7392;52.078;11.650;2023-03-20T09:53:51;101115.38;;;11.45;93.68
14612;BME280;7392;52.078;11.650;2023-03-20T09:56:28;101118.91;;;11.47;93.28
14612;BME280;7392;52.078;11.650;2023-03-20T09:58:58;101121.56;;;11.45;92.10
14612;BME280;7392;52.078;11.650;2023-03-20T10:01:32;101126.88;;;11.45;92.18
14612;BME280;7392;52.078;11.650;2023-03-20T10:04:07;101126.88;;;11.44;92.17
14612;BME280;7392;52.078;11.650;2023-03-20T10:06:35;101120.69;;;11.41;91.78
14612;BME280;7392;52.078;11.650;2023-03-20T10:10:59;101126.00;;;11.48;92.13
14612;BME280;7392;52.078;11.650;2023-03-20T10:13:43;101121.56;;;11.48;91.65
14612;BME280;7392;52.078;11.650;2023-03-20T10:16:19;101116.25;;;11.48;92.01
14612;BME280;7392;52.078;11.650;2023-03-20T10:18:59;101113.59;;;11.48;92.33
14612;BME280;7392;52.078;11.650;2023-03-20T10:21:32;101105.59;;;11.53;92.97
14612;BME280;7392;52.078;11.650;2023-03-20T10:24:04;101107.38;;;11.58;93.10
14612;BME280;7392;52.078;11.650;2023-03-20T10:26:34;101115.34;;;11.63;92.73
14612;BME280;7392;52.078;11.650;2023-03-20T10:29:06;101114.47;;;11.66;92.20
14612;BME280;7392;52.078;11.650;2023-03-20T10:31:42;101110.03;;;11.66;92.00
14612;BME280;7392;52.078;11.650;2023-03-20T10:34:25;101110.03;;;11.68;92.21
14612;BME280;7392;52.078;11.650;2023-03-20T10:37:03;101108.28;;;11.67;92.38
14612;BME280;7392;52.078;11.650;2023-03-20T10:39:48;101111.81;;;11.69;92.52
14612;BME280;7392;52.078;11.650;2023-03-20T10:42:24;101103.84;;;11.70;92.13
14612;BME280;7392;52.078;11.650;2023-03-20T10:44:57;101093.19;;;11.72;91.92
14612;BME280;7392;52.078;11.650;2023-03-20T10:47:29;101092.28;;;11.71;91.90
14612;BME280;7392;52.078;11.650;2023-03-20T10:50:02;101089.63;;;11.71;91.82
14612;BME280;7392;52.078;11.650;2023-03-20T10:52:35;101096.69;;;11.78;91.71
14612;BME280;7392;52.078;11.650;2023-03-20T10:55:07;101085.19;;;11.83;92.14
14612;BME280;7392;52.078;11.650;2023-03-20T10:57:42;101088.72;;;11.86;91.59
14612;BME280;7392;52.078;11.650;2023-03-20T11:00:16;101086.06;;;11.89;91.46
14612;BME280;7392;52.078;11.650;2023-03-20T11:02:45;101086.09;;;11.91;90.59
14612;BME280;7392;52.078;11.650;2023-03-20T11:05:21;101078.09;;;11.94;90.91
14612;BME280;7392;52.078;11.650;2023-03-20T11:07:50;101088.72;;;11.95;91.08
14612;BME280;7392;52.078;11.650;2023-03-20T11:10:26;101084.31;;;11.91;90.21
14612;BME280;7392;52.078;11.650;2023-03-20T11:12:56;101087.81;;;11.90;90.70
14612;BME280;7392;52.078;11.650;2023-03-20T11:15:25;101084.31;;;11.91;91.18
14612;BME280;7392;52.078;11.650;2023-03-20T11:17:57;101084.31;;;11.91;91.00
14612;BME280;7392;52.078;11.650;2023-03-20T11:20:26;101089.63;;;11.91;90.99
14612;BME280;7392;52.078;11.650;2023-03-20T11:25:35;101085.19;;;11.89;90.99
14612;BME280;7392;52.078;11.650;2023-03-20T11:28:18;101093.16;;;11.86;90.85
14612;BME280;7392;52.078;11.650;2023-03-20T11:30:47;101091.38;;;11.85;91.47
14612;BME280;7392;52.078;11.650;2023-03-20T11:33:31;101081.66;;;11.81;91.34
14612;BME280;7392;52.078;11.650;2023-03-20T11:36:00;101085.19;;;11.79;91.79
14612;BME280;7392;52.078;11.650;2023-03-20T11:38:29;101086.97;;;11.77;91.63
14612;BME280;7392;52.078;11.650;2023-03-20T11:41:03;101080.75;;;11.77;91.74
14612;BME280;7392;52.078;11.650;2023-03-20T11:43:36;101080.75;;;11.77;91.94
14612;BME280;7392;52.078;11.650;2023-03-20T11:46:08;101081.63;;;11.77;91.62
14612;BME280;7392;52.078;11.650;2023-03-20T11:48:40;101070.97;;;11.88;92.14
14612;BME280;7392;52.078;11.650;2023-03-20T11:51:12;101067.41;;;11.98;91.03
14612;BME280;7392;52.078;11.650;2023-03-20T11:53:55;101065.59;;;12.16;90.89
14612;BME280;7392;52.078;11.650;2023-03-20T11:56:27;101072.63;;;12.28;89.54
14612;BME280;7392;52.078;11.650;2023-03-20T11:58:57;101058.44;;;12.35;88.53
14612;BME280;7392;52.078;11.650;2023-03-20T12:01:27;101051.31;;;12.39;87.17
14612;BME280;7392;52.078;11.650;2023-03-20T12:04:01;101048.59;;;12.45;87.21
14612;BME280;7392;52.078;11.650;2023-03-20T12:06:41;101051.25;;;12.49;85.91
14612;BME280;7392;52.078;11.650;2023-03-20T12:09:19;101045.91;;;12.54;85.47
14612;BME280;7392;52.078;11.650;2023-03-20T12:11:54;101041.38;;;12.64;85.84
14612;BME280;7392;52.078;11.650;2023-03-20T12:14:31;101043.06;;;12.83;86.46
14612;BME280;7392;52.078;11.650;2023-03-20T12:17:28;101036.69;;;13.00;86.24
14612;BME280;7392;52.078;11.650;2023-03-20T12:20:01;101047.22;;;13.20;86.42
14612;BME280;7392;52.078;11.650;2023-03-20T12:22:33;101042.63;;;13.39;87.13
14612;BME280;7392;52.078;11.650;2023-03-20T12:25:07;101029.13;;;13.54;86.46
14612;BME280;7392;52.078;11.650;2023-03-20T12:27:39;101028.13;;;13.66;85.80
14612;BME280;7392;52.078;11.650;2023-03-20T12:30:14;101038.75;;;13.72;83.95
14612;BME280;7392;52.078;11.650;2023-03-20T12:32:47;101032.59;;;13.65;81.41
14612;BME280;7392;52.078;11.650;2023-03-20T12:35:28;101037.97;;;13.61;80.53
14612;BME280;7392;52.078;11.650;2023-03-20T12:37:56;101030.91;;;13.58;81.08
14612;BME280;7392;52.078;11.650;2023-03-20T12:40:29;101021.09;;;13.59;81.48
14612;BME280;7392;52.078;11.650;2023-03-20T12:43:03;101025.56;;;13.57;80.41
14612;BME280;7392;52.078;11.650;2023-03-20T12:45:36;101023.88;;;13.51;78.28
14612;BME280;7392;52.078;11.650;2023-03-20T12:51:11;101028.44;;;13.37;78.00
14612;BME280;7392;52.078;11.650;2023-03-20T12:53:52;101018.69;;;13.31;78.22
14612;BME280;7392;52.078;11.650;2023-03-20T12:56:31;101027.59;;;13.32;79.03
14612;BME280;7392;52.078;11.650;2023-03-20T12:59:14;101023.19;;;13.21;77.85
14612;BME280;7392;52.078;11.650;2023-03-20T13:01:50;101018.81;;;13.14;78.57
14612;BME280;7392;52.078;11.650;2023-03-20T13:04:34;101021.50;;;13.11;79.21
14612;BME280;7392;52.078;11.650;2023-03-20T13:07:16;101009.97;;;13.09;79.79
14612;BME280;7392;52.078;11.650;2023-03-20T13:10:05;101008.16;;;13.13;80.38
14612;BME280;7392;52.078;11.650;2023-03-20T13:12:42;101012.50;;;13.26;79.45
14612;BME280;7392;52.078;11.650;2023-03-20T13:15:21;101001.69;;;13.44;78.11
14612;BME280;7392;52.078;11.650;2023-03-20T13:17:57;101005.13;;;13.53;77.92
14612;BME280;7392;52.078;11.650;2023-03-20T13:20:29;100993.47;;;13.64;78.37
14612;BME280;7392;52.078;11.650;2023-03-20T13:23:09;100997.88;;;13.67;76.25
14612;BME280;7392;52.078;11.650;2023-03-20T13:25:48;100993.34;;;13.75;76.69
14612;BME280;7392;52.078;11.650;2023-03-20T13:28:24;101000.41;;;13.81;76.50
14612;BME280;7392;52.078;11.650;2023-03-20T13:31:03;100993.09;;;13.95;76.92
14612;BME280;7392;52.078;11.650;2023-03-20T13:33:42;100991.34;;;13.94;74.34
14612;BME280;7392;52.078;11.650;2023-03-20T13:36:22;100988.66;;;13.97;74.51
14612;BME280;7392;52.078;11.650;2023-03-20T13:38:57;100983.28;;;13.99;73.76
14612;BME280;7392;52.078;11.650;2023-03-20T13:41:27;100984.19;;;13.98;73.06